In Rescue
 
Open Full Screen Window  High Contrast Mode
Wind Gusting 00 knots
09
December 19, 2018 11:46 AM EST
Weather Information
Wind Direction
  190 °
Wind Speed
  09 kt (10 mph)
Wind Gust
  00 kt (0 mph)
Altimeter
29.98 in
Visibility
10 SM
Temperature
03° C
37° F
Dewpoint
00° C
32° F
Humidity
81%
1hr Rain Fall
00.00 in.
24hr Rain Fall
00.00 in.
Sky Condition
Clear
VFR

METAR KONZ 191646Z AUTO 19009KT 10SM CLR 03/00 A2998 RMK AO2 T00281002

FAA Disclaimer: The data displayed is for advisory purposes only and is not to be used for flight planning or operations.